Dillon, Montana
Current Conditions -  °F | °C
As of 3:53 PM on Friday 28 Nov 2014 (Local Time) from KDLN Reporting Station
Clear Clear  
Wind Chill: 11°   Ceiling: Unl
Heat Index: 11°   Visibility: 10mi
Dew Point: -7°   Wind: 32mph
Humidity: 28%   Direction: 230°SW
Pressure: 29.55"   Gusts: 41mph
Location:  45.22°N, 112.64°W
Report Text: KDLN 282253Z AUTO 23028G36KT 10SM CLR 11/M07 A2955 RMK AO2 PK WND 23037/2239 SLP980 T01061072
Loading
Personal Weather Stations






























Interactive Weather Map New forecast layout! Learn more

10-Day Weather Forecast

Advertisements
Track Severe Weather on mobile